createdAt,value
2023-04-24T00:01:07.443Z,8.9
2023-04-24T00:03:11.283Z,9.1
2023-04-24T00:05:14.626Z,9.2
2023-04-24T00:07:18.241Z,8.3
2023-04-24T00:09:21.832Z,8.4
2023-04-24T00:13:28.988Z,9.1
2023-04-24T00:15:35.665Z,9.1
2023-04-24T00:17:39.300Z,8.6
2023-04-24T00:19:43.124Z,8.6
2023-04-24T00:21:46.440Z,9.2
2023-04-24T00:23:50.028Z,9.3
2023-04-24T00:25:53.612Z,9
2023-04-24T00:27:57.237Z,9.3
2023-04-24T00:30:03.850Z,8.6
2023-04-24T00:32:07.504Z,8.7
2023-04-24T00:34:11.034Z,9.1
2023-04-24T00:36:14.645Z,8.9
2023-04-24T00:38:18.219Z,8.6
2023-04-24T00:40:21.770Z,8.6
2023-04-24T00:42:25.387Z,8.7
2023-04-24T00:44:32.038Z,9.3
2023-04-24T00:46:35.758Z,9.2
2023-04-24T00:48:39.212Z,9.3
2023-04-24T00:53:05.107Z,9
2023-04-24T00:55:08.599Z,9.4
2023-04-24T00:57:15.241Z,8.6
2023-04-24T00:59:18.816Z,9.4
2023-04-24T01:01:22.449Z,9.4
2023-04-24T01:03:26.155Z,9.2
2023-04-24T01:05:29.593Z,9.5
2023-04-24T01:07:33.179Z,9.1
2023-04-24T01:09:36.759Z,9.4
2023-04-24T01:11:43.410Z,9.4
2023-04-24T01:15:50.667Z,8.6
2023-04-24T01:17:54.233Z,9.2
2023-04-24T01:19:57.746Z,9.2
2023-04-24T01:22:01.373Z,9.2
2023-04-24T01:24:04.931Z,9.3
2023-04-24T01:26:11.590Z,8.7
2023-04-24T01:30:18.785Z,8.4
2023-04-24T01:32:22.403Z,8.4
2023-04-24T01:36:29.533Z,9.1
2023-04-24T01:38:33.144Z,9.3
2023-04-24T01:40:39.790Z,8.5
2023-04-24T01:42:43.366Z,8.7
2023-04-24T01:44:46.998Z,8.6
2023-04-24T01:45:50.250Z,8.5
2023-04-24T01:47:53.893Z,8.5
2023-04-24T01:52:01.029Z,8.8
2023-04-24T01:54:07.683Z,8.9
2023-04-24T01:56:11.268Z,8.4
2023-04-24T02:00:18.445Z,8.7
2023-04-24T02:02:22.226Z,8.5
2023-04-24T02:10:39.457Z,9.1
2023-04-24T02:35:25.568Z,9.1
2023-04-24T02:42:42.633Z,9.3
2023-04-24T02:44:46.231Z,9.1
2023-04-24T02:46:49.825Z,9.1
2023-04-24T02:59:14.424Z,8.8
2023-04-24T03:05:28.228Z,9.1
2023-04-24T03:28:10.711Z,8.7
2023-04-24T03:34:24.480Z,8.8
2023-04-24T03:36:28.019Z,9.3
2023-04-24T03:38:31.644Z,9.1
2023-04-24T03:39:34.934Z,9.3
2023-04-24T03:41:38.488Z,9.3
2023-04-24T03:43:42.085Z,9.2
2023-04-24T03:45:45.656Z,9.1
2023-04-24T03:47:52.405Z,9.3
2023-04-24T03:49:55.931Z,9.3
2023-04-24T03:54:03.091Z,8.7
2023-04-24T04:00:13.798Z,8.6
2023-04-24T04:02:20.558Z,8.6
2023-04-24T04:04:24.193Z,8.7
2023-04-24T04:06:27.661Z,8.6
2023-04-24T04:08:31.196Z,8.6
2023-04-24T04:10:34.807Z,8.6
2023-04-24T04:12:38.385Z,8.8
2023-04-24T04:14:41.939Z,8.9
2023-04-24T04:16:48.761Z,8.5
2023-04-24T04:18:52.191Z,9
2023-04-24T04:22:59.391Z,8.8
2023-04-24T04:31:16.881Z,8.7
2023-04-24T04:33:20.267Z,8.8
2023-04-24T04:35:23.869Z,8.8
2023-04-24T04:37:48.152Z,8.8
2023-04-24T04:39:51.755Z,8.8
2023-04-24T04:44:02.050Z,8.8
2023-04-24T04:46:05.688Z,8.8
2023-04-24T04:48:09.194Z,8.8
2023-04-24T04:50:12.795Z,8.8
2023-04-24T04:52:16.362Z,8.8
2023-04-24T04:54:19.955Z,8.8
2023-04-24T04:58:33.262Z,8.7
2023-04-24T05:00:36.926Z,8.8
2023-04-24T05:02:40.543Z,8.7
2023-04-24T05:06:47.622Z,8.6
2023-04-24T05:08:51.168Z,8.6
2023-04-24T05:10:54.785Z,8.6
2023-04-24T05:13:01.481Z,8.6
2023-04-24T05:15:05.055Z,8.6
2023-04-24T05:17:08.738Z,8.6
2023-04-24T05:19:12.235Z,8.6
2023-04-24T05:21:15.838Z,8.6
2023-04-24T05:23:19.454Z,8.6
2023-04-24T05:25:23.046Z,8.6
2023-04-24T05:31:36.950Z,8.6
2023-04-24T05:32:40.178Z,8.5
2023-04-24T05:36:47.226Z,8.5
2023-04-24T05:51:15.450Z,8.2
2023-04-24T05:55:25.689Z,8.2
2023-04-24T05:57:29.295Z,8.2
2023-04-24T05:59:32.923Z,8.2
2023-04-24T06:01:36.520Z,8.2
2023-04-24T06:03:40.260Z,8.2
2023-04-24T06:05:43.708Z,8.3
2023-04-24T06:20:11.972Z,8.4
2023-04-24T06:22:15.556Z,8.5
2023-04-24T06:24:22.222Z,8.6
2023-04-24T06:26:25.829Z,8.6
2023-04-24T06:29:32.737Z,8.7
2023-04-24T06:31:36.369Z,8.7
2023-04-24T06:33:39.960Z,8.7
2023-04-24T06:35:43.544Z,8.7
2023-04-24T06:37:50.209Z,8.7
2023-04-24T06:39:53.820Z,8.7
2023-04-24T06:44:01.017Z,8.7
2023-04-24T06:46:04.679Z,8.8
2023-04-24T06:48:08.254Z,8.8
2023-04-24T06:50:11.770Z,8.8
2023-04-24T06:52:18.468Z,8.9
2023-04-24T06:54:22.033Z,8.9
2023-04-24T06:56:25.662Z,8.8
2023-04-24T06:58:29.250Z,8.8
2023-04-24T07:00:32.839Z,8.9
2023-04-24T07:02:36.626Z,8.8
2023-04-24T07:04:40.168Z,8.8
2023-04-24T07:06:46.652Z,8.7
2023-04-24T07:10:53.830Z,8.7
2023-04-24T07:12:57.429Z,8.7
2023-04-24T07:15:01.001Z,8.7
2023-04-24T07:17:04.599Z,8.7
2023-04-24T07:19:08.171Z,8.7
2023-04-24T07:21:14.861Z,8.7
2023-04-24T07:23:18.427Z,8.7
2023-04-24T07:25:22.045Z,8.7
2023-04-24T07:26:25.370Z,8.8
2023-04-24T07:28:28.935Z,8.8
2023-04-24T07:30:32.530Z,8.8
2023-04-24T07:49:14.175Z,8.9
2023-04-24T07:51:14.630Z,8.9
2023-04-24T07:55:24.200Z,8.8
2023-04-24T08:05:42.882Z,8.5
2023-04-24T08:11:53.605Z,8.5
2023-04-24T08:18:07.472Z,8.4
2023-04-24T08:20:11.070Z,8.4
2023-04-24T08:22:14.650Z,8.3
2023-04-24T08:41:04.733Z,8.4
2023-04-24T08:49:22.181Z,8.5
2023-04-24T08:51:25.775Z,8.5
2023-04-24T08:53:29.365Z,8.5
2023-04-24T08:55:32.965Z,8.5
2023-04-24T08:57:36.556Z,8.5
2023-04-24T09:01:46.965Z,8.4
2023-04-24T09:07:57.630Z,8.5
2023-04-24T09:10:01.218Z,8.5
2023-04-24T09:12:04.823Z,8.6
2023-04-24T09:14:11.457Z,8.7
2023-04-24T09:16:15.130Z,8.7
2023-04-24T09:18:18.665Z,8.7
2023-04-24T09:19:21.993Z,8.7
2023-04-24T09:25:32.776Z,8.6
2023-04-24T09:40:01.004Z,8
2023-04-24T09:42:07.664Z,8.1
2023-04-24T09:44:11.257Z,8.1
2023-04-24T09:48:18.433Z,8.2
2023-04-24T09:50:22.025Z,8.3
2023-04-24T09:52:25.600Z,8.2
2023-04-24T09:54:29.266Z,8.3
2023-04-24T09:56:35.882Z,8
2023-04-24T09:58:39.483Z,8
2023-04-24T10:00:43.077Z,8
2023-04-24T10:02:46.765Z,8
2023-04-24T10:04:50.299Z,7.9
2023-04-24T10:06:53.849Z,8
2023-04-24T10:08:57.457Z,7.9
2023-04-24T10:11:04.142Z,7.8
2023-04-24T10:13:07.717Z,7.8
2023-04-24T10:15:11.342Z,7.9
2023-04-24T10:16:14.683Z,8
2023-04-24T10:18:18.349Z,8
2023-04-24T10:20:21.825Z,8.4
2023-04-24T10:24:32.116Z,8.6
2023-04-24T10:26:35.675Z,8.6
2023-04-24T10:30:42.852Z,8.9
2023-04-24T10:32:46.459Z,9.1
2023-04-24T10:34:50.047Z,8.9
2023-04-24T10:36:55.816Z,9.1
2023-04-24T10:39:00.281Z,9.3
2023-04-24T10:41:03.796Z,9.7
2023-04-24T10:43:07.443Z,9.6
2023-04-24T10:45:10.956Z,9.5
2023-04-24T10:47:14.524Z,9.2
2023-04-24T10:49:18.101Z,9.6
2023-04-24T10:51:21.663Z,9.7
2023-04-24T10:53:28.269Z,9.8
2023-04-24T10:55:33.367Z,9.8
2023-04-24T10:57:37.101Z,9.8
2023-04-24T10:59:40.416Z,9.2
2023-04-24T11:01:43.985Z,9.2
2023-04-24T11:03:47.803Z,9.2
2023-04-24T11:05:51.041Z,9.2
2023-04-24T11:07:57.650Z,8.9
2023-04-24T11:12:04.723Z,8.9
2023-04-24T11:13:08.033Z,8.7
2023-04-24T11:15:11.575Z,8.7
2023-04-24T11:17:15.162Z,8.7
2023-04-24T11:19:18.711Z,8.7
2023-04-24T11:21:25.322Z,8.8
2023-04-24T11:25:32.432Z,8.4
2023-04-24T11:33:46.635Z,8.3
2023-04-24T11:35:53.271Z,8.3
2023-04-24T11:40:00.941Z,8.4
2023-04-24T11:44:07.563Z,8.3
2023-04-24T11:46:11.147Z,8.6
2023-04-24T11:48:14.683Z,8.8
2023-04-24T11:50:21.331Z,9.2
2023-04-24T11:54:28.479Z,9.3
2023-04-24T11:56:32.019Z,9.5
2023-04-24T12:00:39.169Z,9.6
2023-04-24T12:02:42.915Z,10.2
2023-04-24T12:11:20.579Z,8.8
2023-04-24T12:13:24.147Z,8.8
2023-04-24T12:15:27.699Z,8.7
2023-04-24T12:17:34.337Z,8.7
2023-04-24T12:19:37.905Z,8.7
2023-04-24T12:21:41.446Z,8.8
2023-04-24T12:29:55.619Z,8.6
2023-04-24T12:34:05.811Z,9.1
2023-04-24T12:40:16.525Z,10.2
2023-04-24T12:44:23.570Z,9.8
2023-04-24T12:46:30.236Z,9.4
2023-04-24T12:48:33.832Z,9.2
2023-04-24T12:50:37.347Z,8.9
2023-04-24T13:03:01.981Z,10
2023-04-24T13:06:08.620Z,10.4
2023-04-24T13:08:12.149Z,10.4
2023-04-24T13:14:25.913Z,10.5
2023-04-24T13:20:36.649Z,10.3
2023-04-24T13:24:43.793Z,10.3
2023-04-24T13:26:47.342Z,10.2
2023-04-24T13:33:01.202Z,9.4
2023-04-24T13:35:04.773Z,9.3
2023-04-24T13:39:11.826Z,9.5
2023-04-24T13:43:22.039Z,9.8
2023-04-24T13:47:29.245Z,9.8
2023-04-24T13:49:32.763Z,9.6
2023-04-24T13:51:36.398Z,9.4
2023-04-24T13:53:39.919Z,9.6
2023-04-24T13:55:43.533Z,9.8
2023-04-24T13:57:50.183Z,10.2
2023-04-24T13:59:53.735Z,10.3
2023-04-24T14:01:57.328Z,10.1
2023-04-24T14:03:00.740Z,10
2023-04-24T14:07:07.798Z,10
2023-04-24T14:09:11.324Z,10
2023-04-24T14:13:21.548Z,9.7
2023-04-24T14:15:25.069Z,9.5
2023-04-24T14:17:28.713Z,9.5
2023-04-24T14:21:35.831Z,9.5
2023-04-24T14:25:46.043Z,9.6
2023-04-24T14:27:49.633Z,9.6
2023-04-24T14:29:53.193Z,9.6
2023-04-24T14:38:07.490Z,10.4
2023-04-24T14:40:36.582Z,10.8
2023-04-24T14:42:17.755Z,10.5
2023-04-24T14:44:21.291Z,10.2
2023-04-24T14:48:28.468Z,10.2
2023-04-24T14:50:32.105Z,9.9
2023-04-24T14:54:42.256Z,9.3
2023-04-24T14:56:45.808Z,9.4
2023-04-24T14:59:52.709Z,10.8
2023-04-24T15:06:03.457Z,11
2023-04-24T15:08:10.074Z,11.8
2023-04-24T15:18:27.914Z,11.1
2023-04-24T15:20:31.464Z,11.1
2023-04-24T15:22:38.095Z,10.6
2023-04-24T15:24:41.635Z,10.5
2023-04-24T15:26:45.199Z,10.6
2023-04-24T15:28:48.752Z,10.5
2023-04-24T15:32:55.905Z,10.3
2023-04-24T15:35:07.850Z,10.3
2023-04-24T15:37:06.059Z,10.2
2023-04-24T15:39:09.764Z,10.2
2023-04-24T15:41:13.163Z,10.1
2023-04-24T15:43:16.738Z,10.5
2023-04-24T15:45:20.331Z,11.6
2023-04-24T15:47:23.870Z,10.6
2023-04-24T15:49:27.406Z,10.4
2023-04-24T15:51:34.064Z,11.2
2023-04-24T15:53:37.579Z,11.2
2023-04-24T15:55:41.158Z,11.6
2023-04-24T15:58:03.397Z,11.4
2023-04-24T16:02:10.604Z,11.1
2023-04-24T16:33:12.910Z,11.8
2023-04-24T16:35:16.426Z,11.5
2023-04-24T16:37:19.987Z,10.7
2023-04-24T16:39:23.544Z,10.3
2023-04-24T16:45:34.122Z,10.1
2023-04-24T16:51:49.392Z,11.7
2023-04-24T16:52:52.652Z,11.6
2023-04-24T16:59:03.292Z,10.7
2023-04-24T17:01:09.964Z,10.7
2023-04-24T17:03:13.573Z,10.7
2023-04-24T17:07:20.539Z,10.3
2023-04-24T17:15:37.822Z,9.9
2023-04-24T17:17:41.373Z,9.8
2023-04-24T17:34:12.904Z,9.4
2023-04-24T17:38:20.058Z,9.2
2023-04-24T17:40:23.601Z,9.2
2023-04-24T17:51:47.853Z,9.1
2023-04-24T17:55:54.997Z,9
2023-04-24T17:58:01.670Z,8.9
2023-04-24T18:04:12.576Z,8.9
2023-04-24T18:06:15.969Z,8.9
2023-04-24T18:08:19.615Z,9
2023-04-24T18:10:23.125Z,8.9
2023-04-24T18:12:29.819Z,8.9
2023-04-24T18:14:33.424Z,8.9
2023-04-24T18:16:37.040Z,8.9
2023-04-24T18:18:40.575Z,8.8
2023-04-24T18:20:44.175Z,8.8
2023-04-24T18:22:47.732Z,8.8
2023-04-24T18:24:51.341Z,8.8
2023-04-24T18:26:57.984Z,8.8
2023-04-24T18:29:01.610Z,8.8
2023-04-24T18:31:05.196Z,8.7
2023-04-24T18:33:08.783Z,8.7
2023-04-24T18:45:33.387Z,8.4
2023-04-24T18:54:54.157Z,8.4
2023-04-24T19:03:08.859Z,8.4
2023-04-24T19:09:22.420Z,8.4
2023-04-24T19:11:25.993Z,8.4
2023-04-24T19:30:01.437Z,8.3
2023-04-24T19:51:03.903Z,8
2023-04-24T19:53:07.482Z,8
2023-04-24T19:57:14.659Z,7.9
2023-04-24T19:59:18.249Z,7.9
2023-04-24T20:01:21.877Z,7.9
2023-04-24T20:03:32.681Z,7.9
2023-04-24T20:05:32.035Z,7.9
2023-04-24T20:07:35.668Z,7.9
2023-04-24T20:22:03.806Z,7.7
2023-04-24T20:24:07.403Z,7.7
2023-04-24T20:26:10.977Z,7.7
2023-04-24T20:28:14.580Z,7.7
2023-04-24T20:30:18.169Z,7.7
2023-04-24T20:34:28.427Z,7.7
2023-04-24T20:36:32.000Z,7.6
2023-04-24T20:38:35.586Z,7.5
2023-04-24T20:39:38.938Z,7.5
2023-04-24T20:49:59.959Z,7.3
2023-04-24T20:52:03.593Z,7.2
2023-04-24T20:54:07.168Z,7.2
2023-04-24T20:58:14.311Z,7.2
2023-04-24T21:02:24.719Z,7.1
2023-04-24T21:04:28.235Z,7.1
2023-04-24T21:06:31.840Z,7
2023-04-24T21:08:35.418Z,7
2023-04-24T21:10:38.994Z,7
2023-04-24T21:12:42.646Z,6.9
2023-04-24T21:14:46.270Z,6.9
2023-04-24T21:16:52.930Z,6.9
2023-04-24T21:18:56.538Z,6.9
2023-04-24T21:21:00.133Z,6.9
2023-04-24T21:23:03.699Z,6.9
2023-04-24T21:25:07.314Z,6.8
2023-04-24T21:27:10.943Z,6.9
2023-04-24T21:29:14.541Z,6.9
2023-04-24T21:31:21.277Z,7
2023-04-24T21:33:24.788Z,7
2023-04-24T21:35:28.424Z,6.9
2023-04-24T21:36:32.926Z,7
2023-04-24T21:38:35.368Z,7
2023-04-24T21:40:38.984Z,7
2023-04-24T21:42:42.527Z,7
2023-04-24T21:44:49.242Z,6.9
2023-04-24T21:46:52.843Z,7
2023-04-24T21:48:56.407Z,6.9
2023-04-24T21:51:00.148Z,6.9
2023-04-24T21:53:03.660Z,7
2023-04-24T21:55:07.256Z,6.9
2023-04-24T21:57:10.863Z,7
2023-04-24T21:59:17.556Z,7
2023-04-24T22:03:24.939Z,7
2023-04-24T22:05:28.397Z,7
2023-04-24T22:07:32.006Z,7
2023-04-24T22:11:39.228Z,7
2023-04-24T22:13:45.915Z,7
2023-04-24T22:17:53.116Z,6.9
2023-04-24T22:19:56.706Z,7
2023-04-24T22:22:00.335Z,7
2023-04-24T22:24:03.920Z,7
2023-04-24T22:26:07.546Z,7
2023-04-24T22:28:14.184Z,6.9
2023-04-24T22:30:17.795Z,6.9
2023-04-24T22:35:28.368Z,7
2023-04-24T22:39:35.600Z,6.9
2023-04-24T22:41:42.283Z,6.9
2023-04-24T22:43:45.880Z,7
2023-04-24T22:45:49.497Z,6.9
2023-04-24T22:47:54.704Z,6.8
2023-04-24T22:49:58.213Z,6.8
2023-04-24T22:52:01.833Z,6.8
2023-04-24T22:54:05.440Z,6.8
2023-04-24T22:58:15.732Z,6.8
2023-04-24T23:00:19.337Z,6.7
2023-04-24T23:02:23.106Z,6.6
2023-04-24T23:04:26.637Z,6.6
2023-04-24T23:06:30.190Z,6.5
2023-04-24T23:08:33.792Z,6.5
2023-04-24T23:10:40.447Z,6.4
2023-04-24T23:12:44.103Z,6.4
2023-04-24T23:14:47.671Z,6.4
2023-04-24T23:16:51.394Z,6.3
2023-04-24T23:18:54.947Z,6.4
2023-04-24T23:20:58.544Z,6.4
2023-04-24T23:29:16.067Z,6.4
2023-04-24T23:31:46.242Z,6.3
2023-04-24T23:33:50.135Z,6.3
2023-04-24T23:35:53.445Z,6.3
2023-04-24T23:38:00.154Z,6.3
2023-04-24T23:40:03.777Z,6.3
2023-04-24T23:42:07.332Z,6.1
2023-04-24T23:44:11.025Z,6.1
2023-04-24T23:46:14.616Z,6
2023-04-24T23:48:18.188Z,6
2023-04-24T23:50:21.826Z,6
2023-04-24T23:54:32.126Z,5.8
2023-04-24T23:56:35.711Z,5.8
2023-04-24T23:58:39.332Z,5.7
